createdAt,value
2022-11-22T00:00:58.922Z,19.70
2022-11-22T00:04:03.127Z,18.87
2022-11-22T00:07:06.105Z,21.67
2022-11-22T00:10:11.767Z,19.80
2022-11-22T00:13:14.718Z,19.53
2022-11-22T00:16:17.649Z,19.00
2022-11-22T00:19:22.127Z,20.67
2022-11-22T00:22:25.058Z,19.50
2022-11-22T00:25:28.361Z,19.43
2022-11-22T00:28:31.396Z,19.57
2022-11-22T00:31:34.605Z,20.63
2022-11-22T00:34:38.884Z,19.87
2022-11-22T00:37:42.036Z,20.80
2022-11-22T00:40:45.039Z,19.63
2022-11-22T00:43:47.918Z,19.67
2022-11-22T00:46:50.993Z,19.10
2022-11-22T00:49:55.243Z,19.67
2022-11-22T00:52:58.289Z,19.53
2022-11-22T00:56:01.251Z,20.23
2022-11-22T00:59:04.385Z,19.77
2022-11-22T01:02:07.291Z,20.07
2022-11-22T01:05:11.790Z,19.10
2022-11-22T01:08:14.713Z,18.90
2022-11-22T01:11:19.327Z,19.93
2022-11-22T01:14:22.563Z,20.13
2022-11-22T01:17:25.524Z,21.20
2022-11-22T01:20:30.777Z,19.73
2022-11-22T01:23:34.601Z,19.43
2022-11-22T01:26:37.648Z,20.10
2022-11-22T01:29:40.672Z,20.10
2022-11-22T01:32:43.624Z,20.17
2022-11-22T01:35:48.315Z,19.97
2022-11-22T01:38:51.258Z,19.77
2022-11-22T01:41:54.136Z,19.93
2022-11-22T01:44:57.056Z,20.60
2022-11-22T01:48:03.312Z,20.27
2022-11-22T01:51:21.839Z,19.50
2022-11-22T01:54:28.598Z,21.40
2022-11-22T01:57:35.209Z,19.93
2022-11-22T02:00:39.693Z,20.97
2022-11-22T02:03:46.680Z,21.00
2022-11-22T02:06:57.238Z,21.10
2022-11-22T02:10:00.264Z,20.00
2022-11-22T02:13:04.389Z,19.80
2022-11-22T02:16:07.855Z,20.13
2022-11-22T02:19:15.419Z,20.63
2022-11-22T02:22:32.563Z,20.10
2022-11-22T02:25:49.456Z,19.43
2022-11-22T02:28:54.003Z,19.57
2022-11-22T02:31:57.034Z,21.00
2022-11-22T02:34:59.949Z,19.93
2022-11-22T02:38:06.003Z,20.43
2022-11-22T02:41:12.685Z,19.87
2022-11-22T02:44:16.791Z,20.03
2022-11-22T02:47:19.772Z,19.87
2022-11-22T02:50:22.661Z,20.00
2022-11-22T02:53:25.816Z,20.13
2022-11-22T02:56:30.448Z,19.47
2022-11-22T02:59:33.464Z,21.53
2022-11-22T03:02:36.346Z,22.73
2022-11-22T03:05:39.276Z,21.87
2022-11-22T03:08:42.106Z,21.37
2022-11-22T03:11:47.373Z,20.07
2022-11-22T03:14:50.283Z,20.80
2022-11-22T03:17:58.600Z,20.30
2022-11-22T03:21:03.548Z,21.17
2022-11-22T03:24:07.837Z,21.57
2022-11-22T03:27:12.150Z,19.77
2022-11-22T03:30:15.977Z,19.23
2022-11-22T03:33:18.851Z,21.07
2022-11-22T03:36:21.966Z,22.47
2022-11-22T03:39:25.202Z,21.30
2022-11-22T03:42:29.466Z,21.30
2022-11-22T03:45:32.412Z,20.73
2022-11-22T03:48:35.360Z,21.00
2022-11-22T03:51:38.257Z,22.43
2022-11-22T03:54:41.189Z,22.13
2022-11-22T03:57:45.470Z,21.83
2022-11-22T04:00:48.362Z,22.50
2022-11-22T04:03:52.296Z,21.93
2022-11-22T04:06:55.254Z,20.40
2022-11-22T04:09:58.148Z,22.00
2022-11-22T04:13:03.086Z,22.20
2022-11-22T04:16:05.363Z,21.03
2022-11-22T04:19:08.498Z,21.87
2022-11-22T04:22:10.390Z,22.73
2022-11-22T04:25:16.181Z,22.03
2022-11-22T04:28:35.247Z,22.93
2022-11-22T04:32:03.651Z,23.23
2022-11-22T04:35:07.270Z,22.17
2022-11-22T04:38:10.655Z,23.53
2022-11-22T04:41:13.649Z,23.80
2022-11-22T04:44:35.368Z,22.77
2022-11-22T04:48:01.391Z,24.37
2022-11-22T04:51:22.606Z,23.80
2022-11-22T04:54:25.692Z,24.30
2022-11-22T04:57:28.639Z,24.20
2022-11-22T05:00:33.819Z,24.53
2022-11-22T05:03:36.793Z,24.40
2022-11-22T05:06:39.702Z,23.90
2022-11-22T05:09:42.611Z,23.97
2022-11-22T05:12:45.543Z,23.20
2022-11-22T05:15:51.309Z,24.73
2022-11-22T05:18:59.987Z,24.90
2022-11-22T05:22:02.934Z,24.50
2022-11-22T05:25:05.411Z,24.07
2022-11-22T05:28:08.322Z,23.93
2022-11-22T05:31:15.008Z,24.80
2022-11-22T05:34:18.001Z,24.43
2022-11-22T05:37:21.698Z,25.37
2022-11-22T05:40:24.918Z,24.73
2022-11-22T05:43:28.991Z,23.93
2022-11-22T05:46:33.265Z,24.33
2022-11-22T05:49:36.152Z,24.57
2022-11-22T05:52:39.459Z,24.37
2022-11-22T05:55:42.441Z,24.13
2022-11-22T05:58:45.855Z,24.30
2022-11-22T06:01:50.235Z,25.80
2022-11-22T06:04:53.254Z,25.40
2022-11-22T06:08:00.050Z,24.37
2022-11-22T06:11:06.855Z,24.30
2022-11-22T06:14:10.551Z,24.17
2022-11-22T06:17:14.860Z,24.67
2022-11-22T06:20:17.900Z,24.87
2022-11-22T06:23:20.800Z,24.77
2022-11-22T06:26:25.028Z,23.93
2022-11-22T06:29:30.198Z,24.80
2022-11-22T06:32:35.684Z,24.83
2022-11-22T06:35:38.584Z,24.93
2022-11-22T06:38:42.224Z,25.20
2022-11-22T06:41:45.159Z,25.10
2022-11-22T06:44:48.061Z,25.10
2022-11-22T06:47:52.309Z,25.33
2022-11-22T06:50:59.731Z,24.30
2022-11-22T06:54:02.863Z,24.73
2022-11-22T06:57:05.715Z,24.43
2022-11-22T07:00:10.243Z,23.57
2022-11-22T07:03:14.478Z,24.20
2022-11-22T07:06:19.667Z,23.17
2022-11-22T07:09:22.724Z,25.63
2022-11-22T07:12:25.684Z,24.23
2022-11-22T07:15:28.871Z,24.87
2022-11-22T07:18:33.811Z,24.37
2022-11-22T07:21:38.195Z,23.93
2022-11-22T07:24:41.150Z,22.77
2022-11-22T07:27:44.102Z,23.00
2022-11-22T07:30:46.967Z,23.00
2022-11-22T07:33:51.274Z,23.47
2022-11-22T07:36:59.060Z,23.13
2022-11-22T07:40:03.491Z,23.83
2022-11-22T07:43:06.468Z,23.47
2022-11-22T07:46:14.869Z,24.00
2022-11-22T07:49:19.123Z,25.33
2022-11-22T07:52:22.728Z,23.70
2022-11-22T07:55:26.874Z,25.20
2022-11-22T07:58:29.783Z,24.00
2022-11-22T08:01:32.797Z,24.30
2022-11-22T08:04:37.203Z,24.30
2022-11-22T08:07:40.214Z,24.23
2022-11-22T08:10:44.660Z,24.87
2022-11-22T08:13:47.560Z,23.10
2022-11-22T08:16:51.224Z,24.03
2022-11-22T08:19:55.668Z,23.03
2022-11-22T08:22:58.603Z,23.53
2022-11-22T08:26:01.654Z,24.50
2022-11-22T08:29:09.877Z,22.43
2022-11-22T08:32:15.526Z,23.60
2022-11-22T08:35:19.876Z,24.60
2022-11-22T08:38:22.855Z,24.53
2022-11-22T08:41:26.311Z,24.53
2022-11-22T08:44:29.233Z,25.53
2022-11-22T08:47:32.174Z,26.07
2022-11-22T08:50:36.595Z,25.60
2022-11-22T08:53:40.824Z,26.03
2022-11-22T08:56:43.727Z,26.10
2022-11-22T08:59:46.730Z,24.27
2022-11-22T09:02:49.757Z,26.13
2022-11-22T09:12:39.805Z,26.03
2022-11-22T09:15:42.787Z,26.37
2022-11-22T09:18:46.001Z,26.70
2022-11-22T09:21:50.280Z,26.83
2022-11-22T09:24:53.380Z,28.00
2022-11-22T09:27:56.342Z,27.07
2022-11-22T09:31:03.320Z,27.20
2022-11-22T09:34:06.236Z,27.93
2022-11-22T09:37:10.712Z,26.77
2022-11-22T09:40:14.148Z,27.40
2022-11-22T09:43:25.583Z,27.60
2022-11-22T09:46:36.663Z,27.00
2022-11-22T09:49:44.874Z,24.77
2022-11-22T09:52:54.817Z,25.80
2022-11-22T09:56:00.697Z,27.27
2022-11-22T09:59:07.481Z,27.37
2022-11-22T10:02:19.015Z,27.13
2022-11-22T10:05:26.948Z,27.60
2022-11-22T10:08:38.414Z,28.10
2022-11-22T10:11:46.735Z,27.40
2022-11-22T10:14:55.300Z,26.77
2022-11-22T10:18:01.769Z,28.37
2022-11-22T10:21:06.256Z,27.87
2022-11-22T10:24:16.685Z,26.83
2022-11-22T10:27:19.660Z,27.37
2022-11-22T10:30:23.244Z,26.50
2022-11-22T10:33:33.865Z,25.27
2022-11-22T10:36:45.045Z,28.37
2022-11-22T10:40:09.173Z,26.90
2022-11-22T10:43:28.697Z,27.63
2022-11-22T10:46:42.474Z,26.40
2022-11-22T10:49:56.950Z,26.77
2022-11-22T10:53:06.393Z,28.30
2022-11-22T10:56:17.757Z,26.60
2022-11-22T10:59:39.454Z,26.50
2022-11-22T11:02:59.640Z,28.07
2022-11-22T11:06:24.398Z,26.70
2022-11-22T11:10:09.563Z,27.37
2022-11-22T11:13:05.321Z,26.87
2022-11-22T11:16:12.014Z,27.93
2022-11-22T11:19:19.596Z,27.20
2022-11-22T11:22:50.333Z,26.83
2022-11-22T11:25:52.278Z,27.70
2022-11-22T11:29:43.193Z,27.60
2022-11-22T11:32:54.739Z,27.77
2022-11-22T11:36:02.528Z,26.43
2022-11-22T11:39:05.542Z,27.00
2022-11-22T11:42:26.881Z,26.53
2022-11-22T11:45:30.301Z,25.77
2022-11-22T11:48:41.056Z,27.00
2022-11-22T11:51:45.547Z,26.87
2022-11-22T11:54:50.863Z,25.37
2022-11-22T11:57:54.756Z,25.80
2022-11-22T12:00:58.553Z,26.90
2022-11-22T12:04:05.039Z,25.67
2022-11-22T12:07:19.410Z,28.17
2022-11-22T12:10:32.333Z,26.23
2022-11-22T12:14:04.688Z,25.77
2022-11-22T12:17:13.141Z,26.30
2022-11-22T12:20:22.809Z,25.87
2022-11-22T12:23:32.438Z,27.83
2022-11-22T12:26:35.410Z,26.53
2022-11-22T12:29:41.057Z,26.97
2022-11-22T12:32:48.676Z,28.80
2022-11-22T12:35:55.486Z,27.30
2022-11-22T12:39:02.807Z,27.77
2022-11-22T12:42:11.714Z,25.90
2022-11-22T12:45:24.210Z,26.73
2022-11-22T12:48:31.133Z,26.90
2022-11-22T12:51:42.184Z,26.93
2022-11-22T12:54:53.719Z,26.90
2022-11-22T12:58:08.608Z,27.57
2022-11-22T13:01:18.739Z,28.80
2022-11-22T13:04:28.815Z,29.50
2022-11-22T13:07:50.361Z,26.30
2022-11-22T13:10:57.689Z,26.03
2022-11-22T13:14:06.871Z,26.77
2022-11-22T13:17:10.990Z,25.43
2022-11-22T13:20:19.143Z,26.67
2022-11-22T13:23:45.803Z,26.20
2022-11-22T13:26:59.118Z,26.63
2022-11-22T13:30:03.597Z,26.83
2022-11-22T13:33:07.815Z,27.17
2022-11-22T13:36:38.149Z,26.93
2022-11-22T13:39:46.971Z,27.33
2022-11-22T13:43:15.651Z,25.93
2022-11-22T13:46:55.784Z,26.40
2022-11-22T13:49:58.749Z,26.33
2022-11-22T13:53:22.090Z,26.83
2022-11-22T13:56:59.590Z,26.87
2022-11-22T14:00:48.250Z,27.23
2022-11-22T14:03:52.705Z,25.60
2022-11-22T14:07:02.905Z,27.87
2022-11-22T14:10:22.503Z,25.27
2022-11-22T14:13:36.828Z,27.07
2022-11-22T14:16:54.392Z,26.33
2022-11-22T14:20:07.442Z,27.27
2022-11-22T14:23:22.951Z,26.13
2022-11-22T14:26:34.424Z,29.30
2022-11-22T14:29:53.942Z,26.57
2022-11-22T14:33:04.236Z,28.43
2022-11-22T14:36:18.268Z,27.67
2022-11-22T14:39:53.284Z,27.03
2022-11-22T14:42:59.569Z,26.27
2022-11-22T14:46:30.516Z,28.00
2022-11-22T14:49:43.011Z,29.13
2022-11-22T14:52:49.020Z,28.03
2022-11-22T14:55:57.188Z,27.40
2022-11-22T14:59:29.863Z,27.67
2022-11-22T15:03:07.895Z,27.87
2022-11-22T15:09:23.613Z,26.63
2022-11-22T15:10:27.149Z,27.13
2022-11-22T15:13:53.391Z,28.67
2022-11-22T15:58:47.563Z,29.53
2022-11-22T16:01:53.248Z,28.83
2022-11-22T16:06:10.354Z,29.13
2022-11-22T16:08:25.255Z,26.80
2022-11-22T16:11:34.673Z,28.43
2022-11-22T16:14:45.899Z,29.53
2022-11-22T16:17:59.204Z,28.70
2022-11-22T16:21:04.182Z,26.83
2022-11-22T16:24:17.243Z,29.40
2022-11-22T16:27:20.142Z,28.83
2022-11-22T16:30:23.865Z,27.70
2022-11-22T16:33:28.525Z,29.33
2022-11-22T16:36:31.600Z,29.00
2022-11-22T16:39:34.682Z,29.13
2022-11-22T16:42:39.349Z,26.90
2022-11-22T16:45:42.289Z,29.27
2022-11-22T16:48:46.728Z,27.50
2022-11-22T16:51:51.051Z,29.23
2022-11-22T16:54:54.046Z,29.07
2022-11-22T16:57:57.307Z,29.60
2022-11-22T17:01:00.376Z,29.50
2022-11-22T17:04:05.128Z,29.83
2022-11-22T17:07:10.558Z,30.27
2022-11-22T17:10:13.556Z,28.47
2022-11-22T17:13:21.589Z,29.50
2022-11-22T17:16:24.647Z,29.13
2022-11-22T17:19:52.109Z,30.73
2022-11-22T17:22:52.620Z,30.17
2022-11-22T17:25:55.603Z,29.37
2022-11-22T17:28:58.492Z,29.23
2022-11-22T17:32:01.411Z,29.07
2022-11-22T17:35:06.795Z,30.03
2022-11-22T17:38:11.418Z,29.27
2022-11-22T17:41:14.340Z,30.07
2022-11-22T17:44:18.814Z,28.87
2022-11-22T17:47:21.674Z,31.03
2022-11-22T17:50:25.997Z,28.63
2022-11-22T17:53:28.919Z,29.67
2022-11-22T17:56:33.604Z,30.10
2022-11-22T17:59:36.639Z,30.00
2022-11-22T18:02:39.683Z,28.73
2022-11-22T18:05:44.004Z,30.60
2022-11-22T18:08:47.511Z,31.20
2022-11-22T18:11:50.576Z,30.60
2022-11-22T18:14:53.488Z,30.63
2022-11-22T18:17:56.465Z,30.93
2022-11-22T18:21:00.715Z,30.43
2022-11-22T18:24:03.780Z,29.60
2022-11-22T18:27:06.707Z,30.73
2022-11-22T18:30:11.200Z,30.90
2022-11-22T18:33:14.864Z,30.20
2022-11-22T18:36:53.404Z,30.80
2022-11-22T18:39:46.546Z,28.93
2022-11-22T18:42:51.424Z,29.37
2022-11-22T18:46:01.017Z,29.73
2022-11-22T18:49:03.946Z,30.47
2022-11-22T18:52:10.727Z,31.50
2022-11-22T18:55:17.724Z,29.30
2022-11-22T18:58:20.675Z,30.30
2022-11-22T19:01:26.334Z,31.20
2022-11-22T19:04:29.896Z,30.97
2022-11-22T19:07:34.498Z,30.77
2022-11-22T19:10:37.445Z,30.67
2022-11-22T19:13:41.838Z,30.00
2022-11-22T19:16:44.831Z,33.07
2022-11-22T19:19:47.836Z,31.67
2022-11-22T19:22:52.468Z,30.70
2022-11-22T19:25:55.402Z,29.80
2022-11-22T19:29:02.245Z,29.97
2022-11-22T19:32:05.252Z,31.47
2022-11-22T19:35:09.167Z,29.10
2022-11-22T19:38:13.420Z,31.57
2022-11-22T19:41:17.868Z,29.43
2022-11-22T19:44:22.865Z,30.40
2022-11-22T19:47:26.679Z,31.67
2022-11-22T19:50:29.589Z,29.67
2022-11-22T19:53:33.914Z,31.57
2022-11-22T19:56:38.900Z,30.87
2022-11-22T19:59:41.857Z,29.27
2022-11-22T20:02:44.751Z,33.37
2022-11-22T20:05:47.677Z,31.33
2022-11-22T20:08:52.078Z,30.83
2022-11-22T20:11:54.969Z,29.57
2022-11-22T20:14:58.056Z,30.77
2022-11-22T20:18:01.426Z,29.53
2022-11-22T20:21:06.039Z,30.43
2022-11-22T20:24:10.849Z,29.60
2022-11-22T20:27:13.993Z,30.40
2022-11-22T20:30:17.637Z,30.27
2022-11-22T20:33:20.502Z,29.97
2022-11-22T20:36:25.167Z,30.80
2022-11-22T20:39:29.459Z,28.67
2022-11-22T20:42:34.869Z,30.17
2022-11-22T20:45:38.346Z,27.67
2022-11-22T20:48:42.873Z,31.00
2022-11-22T20:51:45.823Z,29.93
2022-11-22T20:54:50.091Z,32.43
2022-11-22T20:57:53.007Z,32.63
2022-11-22T21:00:56.793Z,29.97
2022-11-22T21:03:59.698Z,31.47
2022-11-22T21:07:02.637Z,29.80
2022-11-22T21:10:07.585Z,29.43
2022-11-22T21:13:10.758Z,30.90
2022-11-22T21:16:23.199Z,30.40
2022-11-22T21:19:26.999Z,32.27
2022-11-22T21:22:31.930Z,30.07
2022-11-22T21:25:36.444Z,29.60
2022-11-22T21:28:39.650Z,30.40
2022-11-22T21:31:42.526Z,29.53
2022-11-22T21:34:45.478Z,29.80
2022-11-22T21:37:48.398Z,29.57
2022-11-22T21:40:58.363Z,29.50
2022-11-22T21:44:08.835Z,30.03
2022-11-22T21:47:11.749Z,31.73
2022-11-22T21:50:15.386Z,29.70
2022-11-22T21:53:18.321Z,29.47
2022-11-22T21:56:22.636Z,30.73
2022-11-22T21:59:25.527Z,33.23
2022-11-22T22:02:29.513Z,29.13
2022-11-22T22:05:32.918Z,30.93
2022-11-22T22:08:36.275Z,30.40
2022-11-22T22:11:41.794Z,33.27
2022-11-22T22:14:44.725Z,32.43
2022-11-22T22:17:47.787Z,30.20
2022-11-22T22:20:59.736Z,33.20
2022-11-22T22:24:03.668Z,32.17
2022-11-22T22:27:07.933Z,33.70
2022-11-22T22:30:11.985Z,31.50
2022-11-22T22:33:14.880Z,32.43
2022-11-22T22:36:17.862Z,33.20
2022-11-22T22:39:20.750Z,29.67
2022-11-22T22:42:25.012Z,31.60
2022-11-22T22:45:28.008Z,32.70
2022-11-22T22:48:31.514Z,31.57
2022-11-22T22:51:34.477Z,33.10
2022-11-22T22:54:37.464Z,33.40
2022-11-22T22:57:41.711Z,31.57
2022-11-22T23:00:44.640Z,30.40
2022-11-22T23:03:49.122Z,34.20
2022-11-22T23:06:52.131Z,30.50
2022-11-22T23:09:55.069Z,33.33
2022-11-22T23:12:59.434Z,32.60
2022-11-22T23:16:02.543Z,30.00
2022-11-22T23:19:05.453Z,30.20
2022-11-22T23:22:08.382Z,31.53
2022-11-22T23:25:11.666Z,32.67
2022-11-22T23:28:16.004Z,32.87
2022-11-22T23:31:18.877Z,32.53
2022-11-22T23:34:22.012Z,32.87
2022-11-22T23:37:24.977Z,34.13
2022-11-22T23:40:27.874Z,32.13
2022-11-22T23:43:32.359Z,33.20
2022-11-22T23:46:35.295Z,32.20
2022-11-22T23:49:38.206Z,33.53
2022-11-22T23:52:41.194Z,34.73
2022-11-22T23:55:44.104Z,32.40
2022-11-22T23:58:48.360Z,33.57
